createdAt,value
2024-03-03T00:01:08.183Z,52.17
2024-03-03T00:03:37.095Z,52.34
2024-03-03T00:06:06.215Z,52.30
2024-03-03T00:08:34.921Z,52.35
2024-03-03T00:11:03.670Z,52.43
2024-03-03T00:13:33.008Z,52.34
2024-03-03T00:16:04.861Z,52.41
2024-03-03T00:18:32.589Z,52.46
2024-03-03T00:21:00.266Z,52.51
2024-03-03T00:23:28.284Z,52.54
2024-03-03T00:25:55.887Z,52.51
2024-03-03T00:28:23.622Z,52.61
2024-03-03T00:30:51.381Z,52.67
2024-03-03T00:33:20.473Z,52.59
2024-03-03T00:35:48.341Z,52.53
2024-03-03T00:38:15.994Z,52.74
2024-03-03T00:40:43.725Z,52.65
2024-03-03T00:43:11.627Z,52.75
2024-03-03T00:45:39.344Z,52.64
2024-03-03T00:48:08.471Z,52.81
2024-03-03T00:50:37.502Z,52.77
2024-03-03T00:53:05.468Z,52.79
2024-03-03T00:55:33.189Z,52.71
2024-03-03T00:58:01.158Z,52.73
2024-03-03T01:00:28.827Z,52.80
2024-03-03T01:02:56.544Z,52.78
2024-03-03T01:05:24.300Z,52.84
2024-03-03T01:07:53.361Z,52.88
2024-03-03T01:10:22.143Z,52.76
2024-03-03T01:12:50.145Z,52.78
2024-03-03T01:15:18.445Z,52.84
2024-03-03T01:17:46.287Z,52.73
2024-03-03T01:20:14.578Z,52.84
2024-03-03T01:22:42.535Z,52.94
2024-03-03T01:25:11.730Z,52.84
2024-03-03T01:27:39.672Z,53.01
2024-03-03T01:30:08.589Z,52.92
2024-03-03T01:32:36.353Z,53.01
2024-03-03T01:35:04.526Z,52.91
2024-03-03T01:37:32.665Z,52.99
2024-03-03T01:40:00.967Z,52.80
2024-03-03T01:42:30.101Z,53.08
2024-03-03T01:44:57.766Z,53.03
2024-03-03T01:47:25.767Z,53.18
2024-03-03T01:49:55.300Z,53.19
2024-03-03T01:52:26.517Z,53.21
2024-03-03T01:54:54.527Z,53.20
2024-03-03T01:57:23.908Z,53.20
2024-03-03T01:59:56.255Z,53.03
2024-03-03T02:02:24.107Z,53.09
2024-03-03T02:04:51.012Z,53.16
2024-03-03T02:07:20.588Z,53.11
2024-03-03T02:09:48.392Z,52.98
2024-03-03T02:12:18.092Z,53.26
2024-03-03T02:14:45.808Z,53.23
2024-03-03T02:17:14.841Z,53.24
2024-03-03T02:19:42.562Z,53.23
2024-03-03T02:22:11.832Z,53.34
2024-03-03T02:24:39.621Z,53.27
2024-03-03T02:27:07.472Z,53.51
2024-03-03T02:29:35.552Z,53.33
2024-03-03T02:32:03.326Z,53.31
2024-03-03T02:34:31.011Z,53.36
2024-03-03T02:36:58.735Z,53.57
2024-03-03T02:39:27.728Z,53.33
2024-03-03T02:41:55.765Z,53.51
2024-03-03T02:44:23.783Z,53.54
2024-03-03T02:46:51.474Z,53.50
2024-03-03T02:49:19.126Z,53.75
2024-03-03T02:51:46.828Z,53.75
2024-03-03T02:54:14.445Z,53.58
2024-03-03T02:56:43.458Z,53.54
2024-03-03T02:59:11.102Z,53.63
2024-03-03T03:01:38.952Z,53.59
2024-03-03T03:04:06.718Z,53.51
2024-03-03T03:06:34.527Z,53.75
2024-03-03T03:09:02.188Z,53.66
2024-03-03T03:11:29.954Z,53.65
2024-03-03T03:13:59.134Z,53.84
2024-03-03T03:16:27.059Z,53.75
2024-03-03T03:18:54.755Z,53.63
2024-03-03T03:21:22.514Z,53.84
2024-03-03T03:23:50.234Z,53.67
2024-03-03T03:26:17.883Z,53.70
2024-03-03T03:28:45.601Z,53.47
2024-03-03T03:31:15.104Z,53.86
2024-03-03T03:33:42.967Z,53.74
2024-03-03T03:36:11.112Z,53.60
2024-03-03T03:38:38.820Z,53.77
2024-03-03T03:41:06.956Z,53.75
2024-03-03T03:43:34.669Z,54.01
2024-03-03T03:46:02.357Z,53.78
2024-03-03T03:48:31.561Z,53.74
2024-03-03T03:50:59.211Z,54.04
2024-03-03T03:53:26.838Z,53.87
2024-03-03T03:55:54.524Z,53.91
2024-03-03T03:58:22.213Z,54.03
2024-03-03T04:00:49.925Z,54.22
2024-03-03T04:03:19.591Z,53.92
2024-03-03T04:05:48.804Z,54.08
2024-03-03T04:08:16.437Z,54.17
2024-03-03T04:10:44.717Z,54.26
2024-03-03T04:13:12.382Z,54.22
2024-03-03T04:15:40.273Z,53.97
2024-03-03T04:18:08.308Z,54.25
2024-03-03T04:20:37.019Z,54.14
2024-03-03T04:23:06.240Z,54.03
2024-03-03T04:25:33.904Z,54.14
2024-03-03T04:28:01.587Z,53.99
2024-03-03T04:30:29.465Z,54.01
2024-03-03T04:32:57.148Z,54.14
2024-03-03T04:35:24.838Z,54.36
2024-03-03T04:37:52.515Z,54.39
2024-03-03T04:40:21.655Z,54.38
2024-03-03T04:42:49.721Z,54.30
2024-03-03T04:45:17.384Z,54.14
2024-03-03T04:47:45.078Z,54.14
2024-03-03T04:50:13.382Z,54.50
2024-03-03T04:52:41.012Z,54.07
2024-03-03T04:55:09.435Z,54.51
2024-03-03T04:57:39.046Z,54.37
2024-03-03T05:00:10.241Z,54.16
2024-03-03T05:02:37.964Z,54.47
2024-03-03T05:05:06.948Z,54.24
2024-03-03T05:07:35.324Z,54.57
2024-03-03T05:10:03.033Z,54.47
2024-03-03T05:12:30.737Z,54.64
2024-03-03T05:14:59.786Z,54.52
2024-03-03T05:17:27.448Z,54.34
2024-03-03T05:19:55.081Z,54.54
2024-03-03T05:22:22.692Z,54.31
2024-03-03T05:24:50.312Z,54.69
2024-03-03T05:27:18.765Z,54.33
2024-03-03T05:29:46.455Z,54.35
2024-03-03T05:32:15.562Z,54.65
2024-03-03T05:34:43.290Z,54.65
2024-03-03T05:37:12.311Z,54.78
2024-03-03T05:39:41.535Z,54.82
2024-03-03T05:42:10.036Z,54.67
2024-03-03T05:44:37.767Z,54.66
2024-03-03T05:47:06.563Z,54.59
2024-03-03T05:49:37.126Z,54.54
2024-03-03T05:52:05.371Z,54.80
2024-03-03T05:54:33.079Z,54.85
2024-03-03T05:57:00.690Z,54.77
2024-03-03T05:59:28.409Z,54.97
2024-03-03T06:01:56.124Z,54.73
2024-03-03T06:04:23.870Z,54.94
2024-03-03T06:06:53.038Z,54.81
2024-03-03T06:09:20.804Z,55.03
2024-03-03T06:11:48.461Z,54.92
2024-03-03T06:14:16.567Z,54.82
2024-03-03T06:16:44.361Z,54.61
2024-03-03T06:19:12.020Z,54.98
2024-03-03T06:21:39.851Z,54.79
2024-03-03T06:24:09.188Z,54.70
2024-03-03T06:26:36.813Z,54.75
2024-03-03T06:29:07.168Z,54.85
2024-03-03T06:31:35.268Z,54.79
2024-03-03T06:34:02.943Z,54.66
2024-03-03T06:36:31.071Z,54.63
2024-03-03T06:38:58.795Z,54.69
2024-03-03T06:41:27.741Z,55.10
2024-03-03T06:43:56.184Z,54.81
2024-03-03T06:46:24.443Z,54.70
2024-03-03T06:48:52.207Z,54.73
2024-03-03T06:51:19.950Z,54.48
2024-03-03T06:53:47.593Z,54.76
2024-03-03T06:56:16.473Z,54.75
2024-03-03T06:58:47.857Z,54.75
2024-03-03T07:01:16.061Z,54.68
2024-03-03T07:04:08.622Z,54.14
2024-03-03T07:06:37.623Z,54.30
2024-03-03T07:09:06.371Z,54.39
2024-03-03T07:11:36.727Z,54.27
2024-03-03T07:14:06.716Z,54.05
2024-03-03T07:16:34.497Z,53.78
2024-03-03T07:19:02.313Z,53.90
2024-03-03T07:21:30.175Z,53.74
2024-03-03T07:23:58.521Z,53.60
2024-03-03T07:26:26.368Z,53.48
2024-03-03T07:28:54.493Z,53.25
2024-03-03T07:31:23.592Z,53.28
2024-03-03T07:33:52.286Z,53.09
2024-03-03T07:36:19.983Z,53.00
2024-03-03T07:38:47.826Z,53.06
2024-03-03T07:41:15.630Z,53.10
2024-03-03T07:43:43.614Z,52.87
2024-03-03T07:46:12.765Z,52.67
2024-03-03T07:48:41.970Z,52.48
2024-03-03T07:51:09.693Z,52.19
2024-03-03T07:53:37.362Z,52.46
2024-03-03T07:56:05.534Z,52.49
2024-03-03T07:58:37.902Z,52.27
2024-03-03T08:01:06.617Z,52.04
2024-03-03T08:03:35.028Z,52.06
2024-03-03T08:06:04.268Z,52.05
2024-03-03T08:08:31.968Z,51.96
2024-03-03T08:11:00.891Z,51.91
2024-03-03T08:13:28.570Z,51.83
2024-03-03T08:15:56.797Z,51.83
2024-03-03T08:18:24.539Z,51.72
2024-03-03T08:20:52.259Z,51.63
2024-03-03T08:23:21.288Z,51.77
2024-03-03T08:25:48.970Z,51.71
2024-03-03T08:28:16.705Z,51.51
2024-03-03T08:30:45.120Z,51.60
2024-03-03T08:33:13.084Z,51.63
2024-03-03T08:35:40.822Z,51.44
2024-03-03T08:38:08.460Z,51.51
2024-03-03T08:40:37.508Z,51.23
2024-03-03T08:43:06.081Z,51.40
2024-03-03T08:45:34.058Z,51.41
2024-03-03T08:48:01.809Z,51.35
2024-03-03T08:50:29.626Z,51.51
2024-03-03T08:52:57.311Z,51.43
2024-03-03T08:55:25.181Z,51.38
2024-03-03T08:57:54.521Z,51.30
2024-03-03T09:00:23.102Z,51.41
2024-03-03T09:02:50.767Z,51.36
2024-03-03T09:05:18.663Z,51.36
2024-03-03T09:07:46.378Z,51.55
2024-03-03T09:10:14.069Z,51.58
2024-03-03T09:12:41.797Z,51.42
2024-03-03T09:15:11.547Z,51.57
2024-03-03T09:17:39.437Z,51.49
2024-03-03T09:20:08.675Z,51.50
2024-03-03T09:22:37.435Z,51.51
2024-03-03T09:25:06.371Z,51.83
2024-03-03T09:27:34.124Z,51.89
2024-03-03T09:30:06.768Z,51.95
2024-03-03T09:32:37.461Z,52.02
2024-03-03T09:35:07.691Z,52.15
2024-03-03T09:37:35.423Z,52.50
2024-03-03T09:40:04.045Z,52.36
2024-03-03T09:42:31.845Z,52.62
2024-03-03T09:45:04.102Z,52.66
2024-03-03T09:47:34.325Z,52.77
2024-03-03T09:50:04.596Z,52.90
2024-03-03T09:52:33.793Z,52.99
2024-03-03T09:55:02.895Z,52.99
2024-03-03T09:57:34.929Z,53.05
2024-03-03T10:00:03.361Z,53.13
2024-03-03T10:02:33.274Z,53.22
2024-03-03T10:05:05.621Z,53.22
2024-03-03T10:07:38.748Z,53.25
2024-03-03T10:10:09.805Z,53.21
2024-03-03T10:12:37.908Z,53.10
2024-03-03T10:15:09.335Z,53.11
2024-03-03T10:17:37.383Z,53.17
2024-03-03T10:20:08.337Z,53.07
2024-03-03T10:22:36.747Z,53.06
2024-03-03T10:25:14.439Z,52.97
2024-03-03T10:27:44.742Z,52.82
2024-03-03T10:30:14.046Z,52.80
2024-03-03T10:32:42.337Z,52.80
2024-03-03T10:35:12.376Z,52.76
2024-03-03T10:37:49.472Z,52.76
2024-03-03T10:40:17.375Z,52.87
2024-03-03T10:42:45.417Z,52.90
2024-03-03T10:45:13.191Z,53.09
2024-03-03T10:47:40.928Z,52.88
2024-03-03T10:50:10.141Z,53.17
2024-03-03T10:52:41.347Z,53.16
2024-03-03T10:55:11.728Z,53.06
2024-03-03T10:57:40.659Z,53.35
2024-03-03T11:00:15.469Z,53.34
2024-03-03T11:02:43.957Z,53.26
2024-03-03T11:05:14.264Z,53.36
2024-03-03T11:07:44.758Z,53.32
2024-03-03T11:10:12.882Z,53.39
2024-03-03T11:12:44.883Z,53.16
2024-03-03T11:15:14.740Z,53.24
2024-03-03T11:17:47.903Z,53.05
2024-03-03T11:20:20.159Z,53.17
2024-03-03T11:22:59.248Z,53.07
2024-03-03T11:25:30.110Z,53.16
2024-03-03T11:28:00.536Z,53.15
2024-03-03T11:30:29.203Z,53.02
2024-03-03T11:32:57.816Z,52.92
2024-03-03T11:35:26.751Z,52.84
2024-03-03T11:37:55.766Z,52.76
2024-03-03T11:40:23.645Z,52.88
2024-03-03T11:42:51.373Z,52.99
2024-03-03T11:45:46.124Z,52.91
2024-03-03T11:48:14.780Z,52.76
2024-03-03T11:50:43.053Z,52.88
2024-03-03T11:53:12.231Z,52.73
2024-03-03T11:55:40.821Z,52.64
2024-03-03T11:58:08.879Z,52.42
2024-03-03T12:00:37.783Z,52.45
2024-03-03T12:03:06.104Z,52.49
2024-03-03T12:05:33.828Z,52.38
2024-03-03T12:08:03.047Z,52.19
2024-03-03T12:10:33.146Z,52.30
2024-03-03T12:13:03.245Z,52.40
2024-03-03T12:15:31.480Z,52.13
2024-03-03T12:18:00.728Z,52.08
2024-03-03T12:20:30.944Z,52.18
2024-03-03T12:22:59.287Z,52.22
2024-03-03T12:25:27.600Z,52.01
2024-03-03T12:27:58.700Z,52.06
2024-03-03T12:30:35.837Z,51.94
2024-03-03T12:33:06.369Z,51.90
2024-03-03T12:35:34.255Z,51.92
2024-03-03T12:38:02.758Z,51.76
2024-03-03T12:40:30.579Z,51.67
2024-03-03T12:43:00.203Z,51.53
2024-03-03T12:45:29.487Z,51.61
2024-03-03T12:47:57.291Z,51.48
2024-03-03T12:50:25.000Z,51.58
2024-03-03T12:52:53.190Z,51.49
2024-03-03T12:55:27.017Z,51.50
2024-03-03T12:57:55.142Z,51.41
2024-03-03T13:00:24.558Z,51.39
2024-03-03T13:02:52.652Z,51.38
2024-03-03T13:05:20.795Z,51.32
2024-03-03T13:07:49.168Z,51.39
2024-03-03T13:10:17.947Z,51.21
2024-03-03T13:12:45.804Z,51.22
2024-03-03T13:15:13.511Z,51.20
2024-03-03T13:17:42.591Z,51.27
2024-03-03T13:20:13.730Z,51.09
2024-03-03T13:22:41.902Z,51.21
2024-03-03T13:25:10.627Z,51.05
2024-03-03T13:27:38.413Z,51.02
2024-03-03T13:30:14.789Z,51.10
2024-03-03T13:32:44.054Z,50.88
2024-03-03T13:35:11.849Z,50.72
2024-03-03T13:37:39.718Z,50.79
2024-03-03T13:40:09.306Z,50.61
2024-03-03T13:42:37.457Z,50.65
2024-03-03T13:45:07.517Z,50.53
2024-03-03T13:47:36.704Z,50.67
2024-03-03T13:50:06.479Z,50.48
2024-03-03T13:52:34.252Z,50.56
2024-03-03T13:55:01.989Z,50.46
2024-03-03T13:57:30.338Z,50.62
2024-03-03T13:59:58.029Z,50.58
2024-03-03T14:02:25.703Z,50.67
2024-03-03T14:04:53.353Z,50.68
2024-03-03T14:07:22.902Z,50.80
2024-03-03T14:09:51.065Z,50.80
2024-03-03T14:12:18.830Z,50.73
2024-03-03T14:14:47.934Z,50.83
2024-03-03T14:17:15.610Z,50.83
2024-03-03T14:19:43.214Z,50.84
2024-03-03T14:22:11.697Z,50.78
2024-03-03T14:24:41.345Z,50.87
2024-03-03T14:27:09.232Z,50.92
2024-03-03T14:29:37.931Z,50.98
2024-03-03T14:32:06.048Z,51.00
2024-03-03T14:34:33.796Z,51.08
2024-03-03T14:37:02.131Z,51.12
2024-03-03T14:39:29.826Z,51.12
2024-03-03T14:41:58.798Z,51.10
2024-03-03T14:44:26.494Z,51.33
2024-03-03T14:46:55.471Z,51.26
2024-03-03T14:49:23.257Z,51.30
2024-03-03T14:51:51.024Z,51.29
2024-03-03T14:54:18.773Z,51.30
2024-03-03T14:56:46.476Z,51.45
2024-03-03T14:59:15.541Z,51.24
2024-03-03T15:01:43.320Z,51.32
2024-03-03T15:04:11.181Z,51.38
2024-03-03T15:06:38.925Z,51.29
2024-03-03T15:09:06.653Z,51.24
2024-03-03T15:11:36.306Z,51.21
2024-03-03T15:14:05.015Z,51.30
2024-03-03T15:16:34.095Z,51.23
2024-03-03T15:19:01.823Z,51.19
2024-03-03T15:21:29.439Z,51.21
2024-03-03T15:23:57.093Z,51.21
2024-03-03T15:26:25.853Z,51.16
2024-03-03T15:28:53.654Z,51.13
2024-03-03T15:31:21.418Z,51.08
2024-03-03T15:33:50.467Z,50.93
2024-03-03T15:36:18.141Z,50.90
2024-03-03T15:38:46.313Z,50.89
2024-03-03T15:41:14.017Z,50.91
2024-03-03T15:43:41.778Z,50.97
2024-03-03T15:46:09.552Z,50.81
2024-03-03T15:48:37.324Z,50.95
2024-03-03T15:51:06.914Z,50.78
2024-03-03T15:53:34.794Z,50.72
2024-03-03T15:56:02.717Z,50.64
2024-03-03T15:58:32.429Z,50.54
2024-03-03T16:01:00.741Z,50.57
2024-03-03T16:03:28.967Z,50.51
2024-03-03T16:05:56.767Z,50.56
2024-03-03T16:08:25.875Z,50.47
2024-03-03T16:10:54.653Z,50.41
2024-03-03T16:13:22.632Z,50.14
2024-03-03T16:15:51.469Z,50.34
2024-03-03T16:18:19.168Z,50.27
2024-03-03T16:20:46.810Z,50.24
2024-03-03T16:23:15.233Z,49.92
2024-03-03T16:25:45.345Z,50.21
2024-03-03T16:28:13.986Z,50.07
2024-03-03T16:30:41.742Z,50.18
2024-03-03T16:33:09.781Z,50.06
2024-03-03T16:35:37.514Z,50.25
2024-03-03T16:38:06.363Z,50.19
2024-03-03T16:40:33.216Z,50.15
2024-03-03T16:43:03.589Z,50.20
2024-03-03T16:45:31.855Z,50.18
2024-03-03T16:47:59.771Z,50.20
2024-03-03T16:50:28.239Z,50.25
2024-03-03T16:52:56.822Z,50.36
2024-03-03T16:55:25.575Z,50.24
2024-03-03T16:57:54.160Z,50.26
2024-03-03T17:00:23.317Z,50.29
2024-03-03T17:02:51.100Z,50.43
2024-03-03T17:05:19.818Z,50.43
2024-03-03T17:07:48.350Z,50.48
2024-03-03T17:10:16.060Z,50.52
2024-03-03T17:12:43.766Z,50.41
2024-03-03T17:15:12.581Z,50.40
2024-03-03T17:17:42.222Z,50.56
2024-03-03T17:20:10.339Z,50.47
2024-03-03T17:22:38.616Z,50.45
2024-03-03T17:25:07.554Z,50.45
2024-03-03T17:27:36.207Z,50.64
2024-03-03T17:30:04.165Z,50.84
2024-03-03T17:32:32.557Z,50.75
2024-03-03T17:35:01.693Z,50.73
2024-03-03T17:37:29.414Z,50.86
2024-03-03T17:39:57.435Z,50.61
2024-03-03T17:42:25.076Z,50.81
2024-03-03T17:44:53.292Z,50.91
2024-03-03T17:47:22.241Z,51.06
2024-03-03T17:49:50.167Z,50.96
2024-03-03T17:52:20.505Z,51.04
2024-03-03T17:54:48.333Z,50.80
2024-03-03T17:57:16.066Z,50.92
2024-03-03T17:59:45.138Z,50.77
2024-03-03T18:02:12.863Z,51.02
2024-03-03T18:04:40.761Z,51.10
2024-03-03T18:07:08.541Z,50.92
2024-03-03T18:09:37.831Z,50.86
2024-03-03T18:12:06.337Z,51.18
2024-03-03T18:14:33.930Z,51.33
2024-03-03T18:17:01.627Z,51.35
2024-03-03T18:19:30.963Z,51.42
2024-03-03T18:21:58.744Z,51.40
2024-03-03T18:24:26.605Z,51.49
2024-03-03T18:26:55.597Z,51.45
2024-03-03T18:29:23.265Z,51.57
2024-03-03T18:31:51.450Z,51.59
2024-03-03T18:34:20.478Z,51.60
2024-03-03T18:36:50.223Z,51.97
2024-03-03T18:39:19.295Z,51.60
2024-03-03T18:41:47.004Z,51.56
2024-03-03T18:44:17.177Z,51.47
2024-03-03T18:46:44.770Z,51.63
2024-03-03T18:49:12.740Z,51.93
2024-03-03T18:51:41.003Z,51.82
2024-03-03T18:54:08.629Z,51.83
2024-03-03T18:56:36.295Z,51.91
2024-03-03T18:59:03.970Z,52.00
2024-03-03T19:01:33.747Z,52.03
2024-03-03T19:04:01.695Z,52.54
2024-03-03T19:06:30.303Z,53.15
2024-03-03T19:08:58.053Z,53.48
2024-03-03T19:11:25.711Z,53.99
2024-03-03T19:13:54.167Z,54.07
2024-03-03T19:16:21.950Z,54.53
2024-03-03T19:18:51.272Z,54.62
2024-03-03T19:21:19.562Z,54.85
2024-03-03T19:23:47.212Z,54.89
2024-03-03T19:26:14.970Z,55.00
2024-03-03T19:28:42.719Z,55.24
2024-03-03T19:31:10.407Z,55.31
2024-03-03T19:33:38.119Z,55.39
2024-03-03T19:36:08.021Z,55.47
2024-03-03T19:38:35.739Z,55.48
2024-03-03T19:41:03.448Z,55.70
2024-03-03T19:43:31.349Z,55.58
2024-03-03T19:45:59.269Z,55.73
2024-03-03T19:48:26.985Z,55.71
2024-03-03T19:50:54.724Z,55.93
2024-03-03T19:53:23.806Z,56.18
2024-03-03T19:55:52.586Z,56.11
2024-03-03T19:58:21.703Z,56.19
2024-03-03T20:00:49.417Z,56.14
2024-03-03T20:03:17.100Z,56.11
2024-03-03T20:05:44.840Z,55.67
2024-03-03T20:08:12.600Z,56.01
2024-03-03T20:10:42.192Z,56.43
2024-03-03T20:13:10.335Z,56.47
2024-03-03T20:15:38.884Z,56.57
2024-03-03T20:18:07.434Z,56.51
2024-03-03T20:20:35.210Z,56.69
2024-03-03T20:23:02.927Z,56.75
2024-03-03T20:25:30.799Z,56.77
2024-03-03T20:27:59.903Z,56.75
2024-03-03T20:30:27.596Z,56.80
2024-03-03T20:32:55.331Z,56.65
2024-03-03T20:35:23.077Z,56.68
2024-03-03T20:37:50.949Z,56.83
2024-03-03T20:40:17.792Z,57.00
2024-03-03T20:42:45.611Z,56.98
2024-03-03T20:45:14.684Z,56.92
2024-03-03T20:47:43.536Z,57.06
2024-03-03T20:50:12.778Z,57.08
2024-03-03T20:52:41.484Z,56.56
2024-03-03T20:55:12.043Z,56.61
2024-03-03T20:57:40.124Z,56.53
2024-03-03T21:00:09.530Z,56.45
2024-03-03T21:02:40.984Z,56.36
2024-03-03T21:05:10.177Z,56.22
2024-03-03T21:07:38.094Z,56.21
2024-03-03T21:10:09.336Z,56.02
2024-03-03T21:12:37.846Z,56.00
2024-03-03T21:15:06.651Z,55.90
2024-03-03T21:17:34.451Z,55.88
2024-03-03T21:20:04.281Z,55.84
2024-03-03T21:22:31.987Z,55.73
2024-03-03T21:24:59.741Z,55.48
2024-03-03T21:27:27.481Z,55.54
2024-03-03T21:29:55.151Z,55.64
2024-03-03T21:32:22.803Z,55.72
2024-03-03T21:34:50.530Z,55.46
2024-03-03T21:37:19.636Z,55.69
2024-03-03T21:39:48.032Z,55.58
2024-03-03T21:42:15.756Z,55.59
2024-03-03T21:44:43.417Z,55.60
2024-03-03T21:47:11.091Z,55.58
2024-03-03T21:49:38.755Z,54.79
2024-03-03T21:52:07.294Z,55.57
2024-03-03T21:54:36.422Z,55.58
2024-03-03T21:57:04.118Z,55.42
2024-03-03T21:59:31.807Z,55.45
2024-03-03T22:02:06.941Z,55.40
2024-03-03T22:04:36.341Z,55.52
2024-03-03T22:07:04.196Z,55.45
2024-03-03T22:09:31.959Z,55.42
2024-03-03T22:12:01.103Z,55.42
2024-03-03T22:14:28.695Z,55.57
2024-03-03T22:16:56.514Z,55.55
2024-03-03T22:19:24.244Z,55.47
2024-03-03T22:21:51.926Z,55.54
2024-03-03T22:24:19.711Z,55.45
2024-03-03T22:26:48.405Z,55.62
2024-03-03T22:29:18.528Z,55.61
2024-03-03T22:31:46.275Z,55.63
2024-03-03T22:34:14.113Z,55.14
2024-03-03T22:36:41.936Z,55.70
2024-03-03T22:39:09.592Z,55.63
2024-03-03T22:41:37.193Z,55.58
2024-03-03T22:44:05.508Z,55.48
2024-03-03T22:46:34.896Z,55.48
2024-03-03T22:49:03.636Z,55.49
2024-03-03T22:51:31.466Z,55.47
2024-03-03T22:53:58.286Z,55.66
2024-03-03T22:56:25.891Z,56.03
2024-03-03T22:58:53.844Z,55.78
2024-03-03T23:01:21.838Z,55.68
2024-03-03T23:03:51.672Z,56.00
2024-03-03T23:06:21.580Z,55.93
2024-03-03T23:08:49.372Z,55.87
2024-03-03T23:11:17.264Z,56.02
2024-03-03T23:13:50.149Z,55.92
2024-03-03T23:16:18.084Z,55.98
2024-03-03T23:18:45.769Z,56.11
2024-03-03T23:21:14.890Z,56.07
2024-03-03T23:23:43.325Z,56.01
2024-03-03T23:26:11.309Z,56.01
2024-03-03T23:28:39.914Z,56.07
2024-03-03T23:31:07.637Z,56.16
2024-03-03T23:33:35.285Z,55.96
2024-03-03T23:36:02.896Z,56.08
2024-03-03T23:38:32.688Z,55.93
2024-03-03T23:41:02.073Z,56.05
2024-03-03T23:43:29.798Z,56.16
2024-03-03T23:45:57.558Z,56.12
2024-03-03T23:48:25.276Z,55.98
2024-03-03T23:50:52.920Z,55.97
2024-03-03T23:53:20.844Z,56.18
2024-03-03T23:55:52.703Z,56.22
2024-03-03T23:58:20.375Z,56.21
